Time;durP1;ratioP1;P1;durP2;ratioP2;P2;SDS_P1;SDS_P2;PMS_P1;PMS_P2;Temp;Humidity;BMP_temperature;BMP_pressure;BME280_temperature;BME280_humidity;BME280_pressure;Samples;Min_cycle;Max_cycle;Signal;HPM_P1;HPM_P2
2022/03/12 00:01:24;;;;;;;27.00;15.18;;;4.90;67.80;;;;;;6278531;22;20008;-63
2022/03/12 00:03:50;;;;;;;24.42;14.80;;;5.00;67.90;;;;;;6278432;22;20000;-63
2022/03/12 00:06:17;;;;;;;26.88;14.60;;;5.00;67.50;;;;;;6278099;22;20016;-63
2022/03/12 00:08:44;;;;;;;24.85;15.05;;;5.00;67.70;;;;;;6278880;22;19999;-64
2022/03/12 00:11:36;;;;;;;23.67;14.23;;;5.00;67.80;;;;;;6277447;22;20004;-64
2022/03/12 00:14:04;;;;;;;26.92;13.88;;;4.90;68.10;;;;;;6279451;22;20007;-63
2022/03/12 00:16:31;;;;;;;23.85;14.30;;;4.80;68.40;;;;;;6279707;22;20004;-63
2022/03/12 00:19:04;;;;;;;27.55;14.15;;;4.80;68.20;;;;;;6279642;22;20004;-63
2022/03/12 00:21:35;;;;;;;24.10;14.48;;;4.80;68.50;;;;;;6279443;22;20005;-64
2022/03/12 00:24:02;;;;;;;23.55;13.75;;;4.70;69.10;;;;;;6278060;22;20007;-64
2022/03/12 00:26:29;;;;;;;26.17;15.02;;;4.50;70.10;;;;;;6278996;22;20392;-64
2022/03/12 00:28:55;;;;;;;25.75;14.20;;;4.30;70.50;;;;;;6279495;22;20003;-64
2022/03/12 00:31:22;;;;;;;25.83;14.40;;;4.20;70.70;;;;;;6279531;22;20003;-63
2022/03/12 00:33:48;;;;;;;23.50;13.18;;;4.20;70.80;;;;;;6279664;22;20011;-64
2022/03/12 00:36:16;;;;;;;23.40;14.38;;;4.10;70.70;;;;;;6279393;22;20000;-65
2022/03/12 00:38:41;;;;;;;25.27;13.95;;;4.10;70.90;;;;;;6278312;22;20000;-63
2022/03/12 00:41:11;;;;;;;22.95;13.50;;;4.10;70.80;;;;;;6276984;22;20366;-64
2022/03/12 00:43:37;;;;;;;22.88;13.77;;;4.10;71.20;;;;;;6277785;22;20003;-65
2022/03/12 00:46:05;;;;;;;26.80;14.05;;;4.10;70.80;;;;;;6278414;22;20004;-63
2022/03/12 00:48:31;;;;;;;29.55;14.63;;;4.10;71.10;;;;;;6277266;22;20004;-64
2022/03/12 00:50:57;;;;;;;24.52;14.57;;;4.00;71.40;;;;;;6278456;22;20000;-64
2022/03/12 00:53:22;;;;;;;23.55;14.05;;;4.00;71.40;;;;;;6279038;22;20003;-65
2022/03/12 00:55:48;;;;;;;24.45;15.32;;;3.90;71.50;;;;;;6277457;22;20004;-65
2022/03/12 00:58:17;;;;;;;21.33;13.40;;;3.90;71.60;;;;;;6279358;22;20078;-65
2022/03/12 01:00:43;;;;;;;24.35;14.00;;;3.80;71.80;;;;;;6280031;22;20261;-66
2022/03/12 01:03:11;;;;;;;25.95;14.70;;;3.70;72.20;;;;;;6280902;22;20250;-65
2022/03/12 01:05:45;;;;;;;28.75;13.98;;;3.60;72.50;;;;;;6281449;22;19999;-64
2022/03/12 01:08:11;;;;;;;23.60;14.05;;;3.50;72.70;;;;;;6281133;22;20077;-65
2022/03/12 01:10:40;;;;;;;24.33;14.10;;;3.50;73.00;;;;;;6279302;22;19999;-65
2022/03/12 01:13:05;;;;;;;23.45;12.98;;;3.50;73.10;;;;;;6280764;22;19996;-64
2022/03/12 01:15:32;;;;;;;24.98;14.45;;;3.40;73.10;;;;;;6281059;22;20011;-64
2022/03/12 01:17:58;;;;;;;29.52;15.57;;;3.40;73.00;;;;;;6281087;22;20083;-64
2022/03/12 01:20:24;;;;;;;27.63;15.80;;;3.40;73.00;;;;;;6281459;22;20011;-64
2022/03/12 01:22:50;;;;;;;22.30;14.02;;;3.40;73.20;;;;;;6280581;22;20004;-66
2022/03/12 01:25:16;;;;;;;26.30;14.27;;;3.40;73.10;;;;;;6278998;22;20369;-66
2022/03/12 01:27:42;;;;;;;27.95;15.23;;;3.60;72.90;;;;;;6280867;22;20300;-62
2022/03/12 01:30:08;;;;;;;23.05;14.25;;;3.70;72.70;;;;;;6281218;22;20006;-65
2022/03/12 01:32:35;;;;;;;23.80;14.05;;;3.70;72.30;;;;;;6281213;22;20004;-66
2022/03/12 01:35:01;;;;;;;30.60;14.70;;;3.70;72.30;;;;;;6280700;22;20031;-65
2022/03/12 01:37:27;;;;;;;24.65;15.30;;;3.70;72.40;;;;;;6281073;22;20004;-65
2022/03/12 01:39:53;;;;;;;30.92;15.50;;;3.70;72.30;;;;;;6279413;22;20619;-65
2022/03/12 01:42:21;;;;;;;26.23;15.20;;;3.70;72.30;;;;;;6280604;22;20045;-65
2022/03/12 01:44:50;;;;;;;26.48;15.30;;;3.60;72.50;;;;;;6281053;22;20074;-65
2022/03/12 01:47:19;;;;;;;24.38;15.48;;;3.60;72.80;;;;;;6281148;22;20027;-65
2022/03/12 01:49:49;;;;;;;27.25;15.38;;;3.50;73.00;;;;;;6280815;22;20011;-65
2022/03/12 01:52:15;;;;;;;25.02;15.07;;;3.50;73.10;;;;;;6280912;22;20022;-65
2022/03/12 01:54:42;;;;;;;29.30;15.10;;;3.50;73.00;;;;;;6278812;22;20369;-65
2022/03/12 01:57:11;;;;;;;25.23;14.95;;;3.50;72.90;;;;;;6280439;22;20369;-65
2022/03/12 01:59:37;;;;;;;26.05;15.00;;;3.60;72.50;;;;;;6280126;22;20235;-65
2022/03/12 02:02:06;;;;;;;24.60;14.45;;;3.60;72.50;;;;;;6280689;22;20000;-65
2022/03/12 02:04:31;;;;;;;29.95;15.65;;;3.50;72.90;;;;;;6280662;22;20273;-65
2022/03/12 02:07:00;;;;;;;27.55;14.55;;;3.50;73.00;;;;;;6280098;22;20094;-65
2022/03/12 02:09:26;;;;;;;22.10;13.73;;;3.40;73.20;;;;;;6279007;22;20007;-65
2022/03/12 02:11:53;;;;;;;26.30;14.90;;;3.40;73.30;;;;;;6280081;22;19996;-65
2022/03/12 02:14:27;;;;;;;24.88;14.93;;;3.30;73.40;;;;;;6279873;22;20053;-65
2022/03/12 02:16:59;;;;;;;29.42;14.98;;;3.30;73.70;;;;;;6279854;22;20024;-65
2022/03/12 02:19:26;;;;;;;29.95;14.85;;;3.20;74.00;;;;;;6280130;22;20015;-65
2022/03/12 02:21:55;;;;;;;26.08;14.98;;;3.10;74.20;;;;;;6280228;22;20380;-65
2022/03/12 02:24:23;;;;;;;26.05;14.63;;;3.10;74.30;;;;;;6278709;22;20011;-65
2022/03/12 02:26:49;;;;;;;25.27;15.07;;;3.00;74.60;;;;;;6279680;22;20365;-65
2022/03/12 02:29:21;;;;;;;29.85;15.50;;;3.00;74.70;;;;;;6279777;22;20023;-65
2022/03/12 02:31:51;;;;;;;24.65;15.20;;;3.00;74.70;;;;;;6280505;22;20004;-65
2022/03/12 02:34:21;;;;;;;25.85;15.13;;;2.90;74.80;;;;;;6280513;22;20066;-65
2022/03/12 02:36:49;;;;;;;25.60;14.57;;;2.90;74.80;;;;;;6280246;22;20382;-65
2022/03/12 02:39:16;;;;;;;25.98;15.15;;;2.90;75.00;;;;;;6278329;22;19999;-65
2022/03/12 02:41:42;;;;;;;25.10;14.60;;;2.90;74.90;;;;;;6280044;22;20023;-64
2022/03/12 02:44:10;;;;;;;26.70;15.98;;;2.80;75.20;;;;;;6280283;22;20311;-64
2022/03/12 02:46:40;;;;;;;29.13;15.23;;;2.80;75.10;;;;;;6280465;22;19996;-64
2022/03/12 02:49:06;;;;;;;26.98;15.82;;;2.90;75.00;;;;;;6280469;22;20401;-65
2022/03/12 02:51:34;;;;;;;25.98;15.32;;;2.90;75.10;;;;;;6279864;22;20077;-64
2022/03/12 02:54:00;;;;;;;28.70;15.70;;;2.80;75.50;;;;;;6278929;22;20080;-64
2022/03/12 02:56:28;;;;;;;28.25;15.77;;;2.80;75.60;;;;;;6280127;22;20369;-64
2022/03/12 02:58:54;;;;;;;27.77;15.77;;;2.80;75.50;;;;;;6280158;22;20026;-65
2022/03/12 03:01:22;;;;;;;27.10;15.35;;;2.90;75.40;;;;;;6279847;22;20452;-64
2022/03/12 03:03:48;;;;;;;28.77;15.35;;;2.80;75.30;;;;;;6281871;22;20379;-65
2022/03/12 03:06:14;;;;;;;23.92;14.77;;;2.80;75.40;;;;;;6279908;22;20015;-65
2022/03/12 03:08:42;;;;;;;28.10;14.88;;;2.70;75.40;;;;;;6280258;22;20085;-66
2022/03/12 03:11:19;;;;;;;28.88;16.85;;;2.70;75.40;;;;;;6277974;22;20431;-65
2022/03/12 03:13:45;;;;;;;28.60;15.65;;;2.60;75.50;;;;;;6280011;22;20324;-65
2022/03/12 03:16:25;;;;;;;27.73;15.27;;;2.60;75.60;;;;;;6280622;22;20252;-65
2022/03/12 03:18:53;;;;;;;26.63;15.10;;;2.60;75.70;;;;;;6279171;22;20000;-64
2022/03/12 03:21:24;;;;;;;27.70;14.98;;;2.60;75.60;;;;;;6280388;22;19996;-64
2022/03/12 03:23:51;;;;;;;28.48;16.42;;;2.50;75.70;;;;;;6277755;22;19996;-65
2022/03/12 03:26:43;;;;;;;31.85;16.05;;;2.50;76.00;;;;;;6279272;22;20007;-64
2022/03/12 03:29:15;;;;;;;23.80;14.70;;;2.50;76.70;;;;;;6279491;22;19996;-65
2022/03/12 03:31:41;;;;;;;27.75;15.25;;;2.40;76.80;;;;;;6279691;22;20073;-64
2022/03/12 03:34:07;;;;;;;24.63;14.18;;;2.40;76.70;;;;;;6278780;22;20004;-65
2022/03/12 03:36:33;;;;;;;28.60;15.68;;;2.40;76.90;;;;;;6279898;22;20027;-64
2022/03/12 03:38:59;;;;;;;24.65;14.90;;;2.40;77.00;;;;;;6277904;22;20070;-64
2022/03/12 03:41:25;;;;;;;26.60;15.20;;;2.40;76.80;;;;;;6278385;22;20066;-65
2022/03/12 03:43:51;;;;;;;29.48;16.65;;;2.40;76.80;;;;;;6279223;22;20010;-64
2022/03/12 03:46:20;;;;;;;26.55;16.30;;;2.40;76.70;;;;;;6279572;22;20049;-64
2022/03/12 03:48:48;;;;;;;33.85;16.70;;;2.40;77.10;;;;;;6279420;22;20365;-65
2022/03/12 03:51:14;;;;;;;29.15;16.38;;;2.30;77.20;;;;;;6279732;22;20063;-64
2022/03/12 03:53:39;;;;;;;28.98;15.77;;;2.30;77.20;;;;;;6279111;22;20033;-64
2022/03/12 03:56:05;;;;;;;29.50;14.98;;;2.40;77.00;;;;;;6277763;22;19999;-65
2022/03/12 03:58:34;;;;;;;30.00;15.70;;;2.40;76.90;;;;;;6279069;22;20003;-64
2022/03/12 04:01:10;;;;;;;25.77;15.30;;;2.50;76.70;;;;;;6279631;22;20324;-64
2022/03/12 04:03:37;;;;;;;28.15;15.80;;;2.50;77.10;;;;;;6279763;22;20438;-65
2022/03/12 04:06:04;;;;;;;30.20;15.43;;;2.50;77.00;;;;;;6279684;22;20046;-64
2022/03/12 04:08:31;;;;;;;30.80;16.83;;;2.50;77.30;;;;;;6278565;22;20335;-64
2022/03/12 04:10:57;;;;;;;26.30;15.25;;;2.50;77.80;;;;;;6278022;22;19996;-65
2022/03/12 04:13:23;;;;;;;28.40;15.38;;;2.60;78.00;;;;;;6279062;22;19996;-65
2022/03/12 04:15:51;;;;;;;28.35;16.38;;;2.60;77.70;;;;;;6279049;22;20006;-64
2022/03/12 04:18:18;;;;;;;29.23;15.27;;;2.70;78.00;;;;;;6279621;22;20008;-65
2022/03/12 04:20:48;;;;;;;26.40;15.10;;;2.70;77.80;;;;;;6279736;22;20011;-64
2022/03/12 04:23:18;;;;;;;25.88;15.15;;;2.70;78.20;;;;;;6279600;22;20007;-63
2022/03/12 04:25:45;;;;;;;25.70;14.95;;;2.80;78.20;;;;;;6277735;22;20027;-64
2022/03/12 04:28:11;;;;;;;29.23;16.75;;;2.80;77.90;;;;;;6279491;22;19996;-64
2022/03/12 04:30:38;;;;;;;27.90;15.50;;;2.90;77.40;;;;;;6279262;22;20069;-64
2022/03/12 04:33:04;;;;;;;33.05;17.00;;;3.00;77.10;;;;;;6279096;22;20004;-65
2022/03/12 04:35:30;;;;;;;26.92;15.25;;;3.00;77.50;;;;;;6280202;22;19999;-65
2022/03/12 04:37:56;;;;;;;31.80;16.73;;;3.00;77.20;;;;;;6281004;22;20010;-66
2022/03/12 04:40:26;;;;;;;29.92;16.42;;;3.00;76.70;;;;;;6279758;22;20000;-65
2022/03/12 04:42:53;;;;;;;28.80;14.38;;;3.10;76.20;;;;;;6281345;22;20007;-64
2022/03/12 04:45:21;;;;;;;32.10;15.82;;;3.20;76.10;;;;;;6281193;22;20078;-65
2022/03/12 04:47:49;;;;;;;29.90;16.05;;;3.20;76.20;;;;;;6281356;22;20023;-64
2022/03/12 04:50:17;;;;;;;27.77;15.38;;;3.30;76.00;;;;;;6281204;22;20007;-64
2022/03/12 04:52:56;;;;;;;27.10;15.45;;;3.40;75.40;;;;;;6281105;22;20006;-65
2022/03/12 04:55:24;;;;;;;30.63;15.88;;;3.40;75.70;;;;;;6279991;22;20028;-64
2022/03/12 04:57:51;;;;;;;28.63;15.35;;;3.50;75.90;;;;;;6281233;22;20319;-64
2022/03/12 05:00:25;;;;;;;28.67;16.15;;;3.40;76.60;;;;;;6281222;22;20004;-64
2022/03/12 05:02:56;;;;;;;74.15;38.78;;;3.40;77.10;;;;;;6281138;22;20075;-65
2022/03/12 05:05:22;;;;;;;61.22;32.00;;;3.20;77.40;;;;;;6280771;22;20035;-65
2022/03/12 05:07:48;;;;;;;31.17;18.70;;;3.10;77.90;;;;;;6280731;22;20388;-65
2022/03/12 05:10:19;;;;;;;30.73;15.55;;;3.00;78.40;;;;;;6279638;22;20075;-67
2022/03/12 05:12:49;;;;;;;29.63;16.25;;;2.90;78.00;;;;;;6280518;22;20004;-65
2022/03/12 05:15:17;;;;;;;24.23;14.90;;;2.90;78.10;;;;;;6281227;22;19999;-64
2022/03/12 05:17:51;;;;;;;28.55;17.27;;;2.80;78.70;;;;;;6280067;22;20011;-65
2022/03/12 05:20:23;;;;;;;28.85;14.82;;;2.90;78.50;;;;;;6280885;22;20272;-65
2022/03/12 05:22:50;;;;;;;26.35;15.63;;;2.90;78.30;;;;;;6281115;22;20023;-63
2022/03/12 05:25:19;;;;;;;34.20;15.77;;;2.90;78.50;;;;;;6279328;22;20061;-64
2022/03/12 05:27:52;;;;;;;29.35;17.42;;;2.90;79.20;;;;;;6280919;22;19995;-64
2022/03/12 05:30:19;;;;;;;30.00;16.20;;;3.00;78.90;;;;;;6280948;22;20062;-65
2022/03/12 05:32:46;;;;;;;27.98;15.70;;;3.00;79.20;;;;;;6280974;22;20694;-65
2022/03/12 05:35:12;;;;;;;34.60;19.92;;;3.20;79.90;;;;;;6279768;22;20461;-64
2022/03/12 05:37:38;;;;;;;34.85;21.75;;;3.30;79.20;;;;;;6280945;22;20014;-65
2022/03/12 05:40:07;;;;;;;37.70;20.20;;;3.20;79.30;;;;;;6279201;22;20010;-65
2022/03/12 05:42:34;;;;;;;33.70;19.92;;;3.20;79.20;;;;;;6281226;22;20022;-64
2022/03/12 05:45:01;;;;;;;39.15;20.13;;;3.30;79.40;;;;;;6281197;22;20010;-64
2022/03/12 05:47:27;;;;;;;33.42;19.60;;;3.20;79.60;;;;;;6279523;22;20007;-64
2022/03/12 05:49:53;;;;;;;30.08;17.65;;;3.20;79.90;;;;;;6280969;22;20007;-63
2022/03/12 05:52:19;;;;;;;28.55;17.00;;;3.20;80.60;;;;;;6281031;22;19996;-63
2022/03/12 05:54:46;;;;;;;29.65;16.90;;;3.20;81.10;;;;;;6278671;22;20010;-64
2022/03/12 05:57:12;;;;;;;32.08;17.77;;;3.30;81.00;;;;;;6280940;22;20000;-65
2022/03/12 05:59:37;;;;;;;30.65;17.95;;;3.40;81.00;;;;;;6278454;22;20026;-64
2022/03/12 06:02:03;;;;;;;30.88;17.55;;;3.50;81.00;;;;;;6280642;22;20004;-65
2022/03/12 06:04:29;;;;;;;35.05;19.20;;;3.70;80.50;;;;;;6280440;22;19995;-66
2022/03/12 06:06:57;;;;;;;36.15;20.73;;;4.00;79.50;;;;;;6280675;22;20016;-66
2022/03/12 06:09:23;;;;;;;38.83;20.67;;;4.20;78.90;;;;;;6278809;22;20000;-65
2022/03/12 06:11:53;;;;;;;39.25;21.70;;;4.20;79.00;;;;;;6280817;22;19999;-65
2022/03/12 06:14:19;;;;;;;39.85;21.75;;;4.30;79.10;;;;;;6280254;22;19999;-64
2022/03/12 06:16:52;;;;;;;54.75;29.52;;;4.30;79.60;;;;;;6280305;22;20012;-64
2022/03/12 06:19:19;;;;;;;32.15;19.13;;;4.30;79.20;;;;;;6279687;22;20039;-64
2022/03/12 06:21:48;;;;;;;26.45;15.77;;;4.40;78.30;;;;;;6279886;22;20497;-65
2022/03/12 06:24:14;;;;;;;31.00;18.45;;;4.30;78.90;;;;;;6279116;22;20011;-65
2022/03/12 06:26:44;;;;;;;30.42;17.75;;;4.20;79.20;;;;;;6280438;22;20053;-66
2022/03/12 06:29:13;;;;;;;31.27;18.98;;;4.30;77.70;;;;;;6279695;22;19996;-64
2022/03/12 06:31:42;;;;;;;31.27;18.50;;;4.40;77.40;;;;;;6280081;22;20000;-64
2022/03/12 06:34:10;;;;;;;29.67;17.42;;;4.30;77.80;;;;;;6280354;22;20003;-65
2022/03/12 06:36:37;;;;;;;31.92;16.95;;;4.40;78.50;;;;;;6280072;22;20027;-65
2022/03/12 06:39:07;;;;;;;29.10;16.70;;;4.50;78.50;;;;;;6278589;22;20143;-65
2022/03/12 06:41:38;;;;;;;31.70;16.80;;;4.50;78.60;;;;;;6279884;22;20364;-64
2022/03/12 06:44:04;;;;;;;29.40;16.45;;;4.60;78.70;;;;;;6279914;22;20008;-65
2022/03/12 06:46:31;;;;;;;31.75;16.02;;;4.80;79.10;;;;;;6280107;22;20061;-65
2022/03/12 06:48:57;;;;;;;33.22;18.63;;;4.80;78.00;;;;;;6280006;22;19995;-64
2022/03/12 06:51:23;;;;;;;35.25;19.63;;;4.90;77.50;;;;;;6279764;22;19999;-65
2022/03/12 06:53:50;;;;;;;33.15;19.15;;;5.00;77.30;;;;;;6278409;22;20361;-65
2022/03/12 06:56:15;;;;;;;37.30;19.02;;;5.20;77.50;;;;;;6280096;22;20000;-65
2022/03/12 06:58:41;;;;;;;37.97;20.20;;;5.40;77.30;;;;;;6279474;22;20026;-65
2022/03/12 07:01:07;;;;;;;34.13;19.30;;;5.50;77.30;;;;;;6279052;22;20349;-66
2022/03/12 07:03:32;;;;;;;36.00;20.85;;;5.70;76.10;;;;;;6278933;22;20008;-66
2022/03/12 07:05:58;;;;;;;39.53;22.13;;;5.90;75.20;;;;;;6278930;22;20015;-66
2022/03/12 07:08:23;;;;;;;36.13;21.38;;;6.10;74.30;;;;;;6279066;22;20320;-66
2022/03/12 07:10:50;;;;;;;37.33;20.70;;;6.20;74.70;;;;;;6278564;22;20078;-66
2022/03/12 07:13:16;;;;;;;35.88;20.67;;;6.30;74.90;;;;;;6279453;22;20008;-66
2022/03/12 07:15:43;;;;;;;41.20;20.60;;;6.40;74.60;;;;;;6279387;22;20261;-66
2022/03/12 07:18:08;;;;;;;37.72;21.13;;;6.50;74.60;;;;;;6279330;22;20030;-64
2022/03/12 07:20:34;;;;;;;32.72;19.27;;;6.60;75.00;;;;;;6279194;22;20007;-65
2022/03/12 07:23:00;;;;;;;35.30;18.02;;;6.80;74.60;;;;;;6279537;22;20304;-65
2022/03/12 07:25:27;;;;;;;35.33;18.50;;;6.90;74.30;;;;;;6278426;22;20026;-65
2022/03/12 07:27:54;;;;;;;31.98;16.85;;;7.00;74.20;;;;;;6279590;22;20027;-65
2022/03/12 07:30:21;;;;;;;59.40;33.85;;;7.30;74.40;;;;;;6279520;22;20265;-65
2022/03/12 07:32:48;;;;;;;66.57;41.08;;;7.50;73.50;;;;;;6278925;22;20067;-65
2022/03/12 07:35:16;;;;;;;55.90;36.05;;;7.40;73.40;;;;;;6278983;22;20019;-64
2022/03/12 07:37:43;;;;;;;49.15;32.05;;;7.40;73.60;;;;;;6279683;22;20026;-65
2022/03/12 07:40:10;;;;;;;46.63;25.20;;;7.50;73.30;;;;;;6278478;22;20246;-65
2022/03/12 07:42:37;;;;;;;51.00;27.52;;;7.60;72.30;;;;;;6279261;22;20034;-65
2022/03/12 07:45:04;;;;;;;44.92;23.98;;;7.80;72.00;;;;;;6279456;22;20317;-66
2022/03/12 07:47:30;;;;;;;42.17;20.98;;;7.80;71.50;;;;;;6279665;22;20000;-66
2022/03/12 07:49:55;;;;;;;38.55;21.77;;;7.90;70.60;;;;;;6279628;22;20035;-65
2022/03/12 07:52:21;;;;;;;36.65;20.58;;;8.00;69.90;;;;;;6279505;22;20027;-66
2022/03/12 07:54:47;;;;;;;37.65;19.25;;;8.10;69.60;;;;;;6277948;22;20345;-65
2022/03/12 07:57:16;;;;;;;37.78;20.25;;;8.20;69.40;;;;;;6279196;22;20008;-65
2022/03/12 07:59:42;;;;;;;44.20;19.35;;;8.20;68.40;;;;;;6279327;22;20086;-66
2022/03/12 08:02:09;;;;;;;38.65;16.92;;;8.30;68.50;;;;;;6279689;22;20054;-65
2022/03/12 08:04:35;;;;;;;40.65;18.10;;;8.50;68.50;;;;;;6279102;22;20392;-66
2022/03/12 08:07:04;;;;;;;39.63;19.58;;;8.70;68.20;;;;;;6279294;22;20324;-65
2022/03/12 08:09:31;;;;;;;37.80;18.70;;;9.00;68.30;;;;;;6278147;22;19995;-65
2022/03/12 08:11:58;;;;;;;42.47;23.30;;;9.30;68.00;;;;;;6279133;22;20003;-65
2022/03/12 08:14:24;;;;;;;36.30;21.58;;;9.30;68.40;;;;;;6279521;22;20004;-65
2022/03/12 08:16:52;;;;;;;33.40;20.38;;;9.20;68.50;;;;;;6277968;22;20090;-65
2022/03/12 08:19:18;;;;;;;33.80;19.80;;;9.20;68.00;;;;;;6279781;22;20007;-66
2022/03/12 08:21:47;;;;;;;35.38;20.33;;;9.30;67.10;;;;;;6279315;22;20354;-65
2022/03/12 08:24:15;;;;;;;34.42;19.65;;;9.30;68.40;;;;;;6277490;22;19996;-65
2022/03/12 08:26:42;;;;;;;28.33;17.92;;;8.80;69.00;;;;;;6278031;22;20423;-65
2022/03/12 08:29:18;;;;;;;31.33;18.75;;;9.40;68.40;;;;;;6279495;22;19996;-65
2022/03/12 08:31:44;;;;;;;32.78;19.35;;;10.30;65.90;;;;;;6279363;22;20004;-65
2022/03/12 08:34:11;;;;;;;28.13;17.88;;;11.00;65.10;;;;;;6279408;22;20365;-65
2022/03/12 08:36:36;;;;;;;35.08;20.80;;;11.50;63.20;;;;;;6279343;22;20004;-65
2022/03/12 08:39:03;;;;;;;36.05;21.42;;;12.00;61.80;;;;;;6278337;22;20182;-65
2022/03/12 08:41:29;;;;;;;38.30;21.70;;;12.40;60.90;;;;;;6279328;22;20000;-64
2022/03/12 08:43:55;;;;;;;33.30;18.55;;;13.10;59.90;;;;;;6278943;22;20060;-64
2022/03/12 08:46:20;;;;;;;33.17;19.23;;;13.40;59.10;;;;;;6279253;22;20078;-63
2022/03/12 08:48:46;;;;;;;27.25;18.13;;;14.00;57.60;;;;;;6279360;22;20000;-63
2022/03/12 08:51:15;;;;;;;30.45;18.85;;;13.30;58.10;;;;;;6279116;22;20008;-66
2022/03/12 08:53:41;;;;;;;31.90;18.52;;;13.10;58.90;;;;;;6279618;22;20012;-66
2022/03/12 08:56:08;;;;;;;29.85;18.13;;;13.30;59.30;;;;;;6277468;22;20313;-65
2022/03/12 08:58:33;;;;;;;34.10;18.23;;;13.50;58.00;;;;;;6279016;22;20011;-65
2022/03/12 09:01:06;;;;;;;32.08;18.25;;;13.60;58.30;;;;;;6279061;22;20261;-67
2022/03/12 09:03:33;;;;;;;34.30;18.52;;;13.60;57.70;;;;;;6279451;22;20019;-65
2022/03/12 09:05:59;;;;;;;30.70;17.92;;;13.90;57.60;;;;;;6277777;22;20019;-66
2022/03/12 09:08:25;;;;;;;26.10;17.35;;;14.10;57.20;;;;;;6278431;22;20369;-65
2022/03/12 09:10:51;;;;;;;28.45;17.45;;;14.30;55.90;;;;;;6277117;22;20071;-65
2022/03/12 09:13:17;;;;;;;24.27;15.82;;;14.40;55.60;;;;;;6279241;22;19999;-65
2022/03/12 09:15:43;;;;;;;26.35;16.20;;;14.60;56.50;;;;;;6279531;22;20007;-64
2022/03/12 09:18:09;;;;;;;23.42;15.07;;;15.00;56.40;;;;;;6278781;22;20692;-64
2022/03/12 09:20:45;;;;;;;27.67;16.20;;;15.60;55.70;;;;;;6278514;22;20026;-64
2022/03/12 09:23:16;;;;;;;24.80;15.90;;;15.90;55.40;;;;;;6280463;22;20369;-65
2022/03/12 09:25:42;;;;;;;27.20;16.42;;;16.10;53.70;;;;;;6279250;22;20010;-64
2022/03/12 09:28:08;;;;;;;25.85;16.00;;;16.50;53.50;;;;;;6280108;22;20004;-66
2022/03/12 09:30:34;;;;;;;25.58;15.50;;;16.30;54.00;;;;;;6280585;22;20023;-64
2022/03/12 09:33:00;;;;;;;23.85;14.82;;;15.90;54.80;;;;;;6280221;22;20003;-64
2022/03/12 09:35:26;;;;;;;23.20;15.32;;;15.90;55.90;;;;;;6280532;22;20018;-65
2022/03/12 09:37:52;;;;;;;18.77;12.80;;;16.30;55.30;;;;;;6279904;22;20078;-65
2022/03/12 09:40:18;;;;;;;22.70;14.80;;;17.10;55.70;;;;;;6279563;22;20075;-65
2022/03/12 09:42:44;;;;;;;19.88;13.20;;;17.20;52.80;;;;;;6280802;22;20041;-65
2022/03/12 09:45:11;;;;;;;20.60;13.70;;;16.90;54.60;;;;;;6281108;22;20094;-65
2022/03/12 09:47:37;;;;;;;28.80;16.35;;;16.80;54.20;;;;;;6280762;22;20007;-65
2022/03/12 09:50:04;;;;;;;20.55;13.15;;;17.00;53.80;;;;;;6280389;22;20000;-65
2022/03/12 09:52:30;;;;;;;23.85;14.98;;;17.50;52.90;;;;;;6280783;22;20022;-64
2022/03/12 09:54:56;;;;;;;21.10;13.57;;;18.00;52.40;;;;;;6278787;22;20008;-65
2022/03/12 09:57:21;;;;;;;22.25;13.90;;;18.20;52.00;;;;;;6280634;22;20011;-65
2022/03/12 09:59:48;;;;;;;49.38;21.80;;;18.20;52.10;;;;;;6281051;22;20018;-65
2022/03/12 10:02:14;;;;;;;23.80;15.23;;;17.90;52.10;;;;;;6279961;22;20014;-65
2022/03/12 10:04:39;;;;;;;23.35;15.70;;;18.30;52.10;;;;;;6279692;22;20075;-65
2022/03/12 10:07:09;;;;;;;25.90;16.00;;;18.40;51.60;;;;;;6280062;22;20342;-65
2022/03/12 10:09:36;;;;;;;20.45;15.13;;;18.20;51.10;;;;;;6278923;22;20000;-65
2022/03/12 10:12:02;;;;;;;35.97;18.40;;;17.50;51.80;;;;;;6279713;22;19996;-65
2022/03/12 10:14:28;;;;;;;27.02;16.58;;;16.80;54.00;;;;;;6279948;22;20014;-65
2022/03/12 10:16:54;;;;;;;27.48;17.65;;;16.60;52.80;;;;;;6279855;22;20010;-65
2022/03/12 10:19:20;;;;;;;24.73;15.88;;;16.30;53.60;;;;;;6280843;22;20004;-65
2022/03/12 10:21:52;;;;;;;28.48;17.65;;;16.50;54.10;;;;;;6280162;22;20008;-65
2022/03/12 10:24:18;;;;;;;25.75;16.17;;;16.90;53.50;;;;;;6278378;22;20008;-65
2022/03/12 10:26:46;;;;;;;46.38;25.73;;;17.20;53.10;;;;;;6278592;22;20077;-65
2022/03/12 10:29:12;;;;;;;31.02;18.13;;;17.40;51.90;;;;;;6279776;22;20031;-65
2022/03/12 10:31:41;;;;;;;26.05;17.25;;;17.40;52.30;;;;;;6279963;22;20015;-65
2022/03/12 10:34:24;;;;;;;28.40;17.80;;;16.80;52.40;;;;;;6279739;22;20007;-64
2022/03/12 10:36:53;;;;;;;26.02;16.92;;;16.50;53.10;;;;;;6279372;22;20006;-65
2022/03/12 10:39:40;;;;;;;22.88;15.23;;;16.60;53.50;;;;;;6279064;22;19999;-65
2022/03/12 10:42:07;;;;;;;24.15;16.00;;;16.70;53.20;;;;;;6279783;22;20053;-65
2022/03/12 10:44:39;;;;;;;21.48;14.32;;;16.70;53.60;;;;;;6280480;22;20361;-64
2022/03/12 10:47:24;;;;;;;19.33;13.57;;;16.50;54.00;;;;;;6279612;22;20000;-65
2022/03/12 10:50:00;;;;;;;27.27;14.02;;;16.80;55.60;;;;;;6279904;22;20003;-64
2022/03/12 10:52:28;;;;;;;21.42;14.73;;;17.00;54.20;;;;;;6280231;22;19999;-65
2022/03/12 10:54:54;;;;;;;23.05;15.10;;;17.10;54.20;;;;;;6278148;22;20411;-64
2022/03/12 10:57:20;;;;;;;24.45;15.15;;;17.30;53.10;;;;;;6280207;22;20008;-64
2022/03/12 10:59:46;;;;;;;22.63;14.20;;;16.90;53.90;;;;;;6280493;22;20004;-64
2022/03/12 11:02:15;;;;;;;22.20;14.30;;;16.40;54.60;;;;;;6280734;22;20077;-64
2022/03/12 11:04:41;;;;;;;26.15;14.70;;;16.00;56.60;;;;;;6279733;22;20007;-64
2022/03/12 11:07:27;;;;;;;20.23;12.75;;;16.40;56.20;;;;;;6279079;22;20012;-64
2022/03/12 11:09:54;;;;;;;20.75;12.65;;;16.80;56.60;;;;;;6278536;22;20086;-65
2022/03/12 11:12:30;;;;;;;20.67;13.73;;;17.00;55.80;;;;;;6279056;22;20007;-64
2022/03/12 11:15:02;;;;;;;20.52;14.00;;;17.00;55.30;;;;;;6279861;22;20262;-64
2022/03/12 11:17:28;;;;;;;22.15;13.88;;;17.40;55.10;;;;;;6279314;22;20086;-63
2022/03/12 11:19:57;;;;;;;21.88;13.70;;;17.00;54.70;;;;;;6279868;22;20254;-64
2022/03/12 11:22:22;;;;;;;22.98;14.50;;;16.60;56.00;;;;;;6279918;22;20000;-64
2022/03/12 11:24:51;;;;;;;20.35;13.63;;;16.60;55.30;;;;;;6278043;22;20003;-64
2022/03/12 11:27:32;;;;;;;19.88;13.13;;;16.80;56.00;;;;;;6279568;22;20303;-64
2022/03/12 11:30:00;;;;;;;21.98;13.82;;;17.30;55.00;;;;;;6278562;22;20450;-64
2022/03/12 11:32:30;;;;;;;22.08;12.68;;;17.00;55.90;;;;;;6279709;22;19999;-64
2022/03/12 11:35:08;;;;;;;21.15;13.68;;;17.20;55.70;;;;;;6279819;22;20083;-64
2022/03/12 11:37:36;;;;;;;19.33;12.68;;;17.60;54.40;;;;;;6279937;22;20007;-63
2022/03/12 11:40:11;;;;;;;19.83;12.77;;;17.70;54.30;;;;;;6278203;22;20125;-64
2022/03/12 11:42:38;;;;;;;20.48;13.02;;;17.60;54.80;;;;;;6280060;22;20142;-65
2022/03/12 11:45:09;;;;;;;20.50;13.43;;;17.10;55.60;;;;;;6278807;22;20053;-64
2022/03/12 11:47:38;;;;;;;21.45;14.75;;;17.00;55.80;;;;;;6279167;22;20087;-65
2022/03/12 11:50:06;;;;;;;22.00;13.98;;;17.30;54.90;;;;;;6279160;22;20019;-65
2022/03/12 11:52:33;;;;;;;20.25;13.18;;;17.50;54.10;;;;;;6278756;22;20045;-64
2022/03/12 11:55:01;;;;;;;22.52;14.98;;;17.60;54.50;;;;;;6278321;22;20266;-64
2022/03/12 11:57:32;;;;;;;22.13;13.48;;;17.40;54.00;;;;;;6279764;22;20393;-65
2022/03/12 11:59:58;;;;;;;18.52;13.18;;;17.10;55.70;;;;;;6279860;22;20020;-64
2022/03/12 12:02:26;;;;;;;20.63;13.60;;;16.90;55.40;;;;;;6279503;22;20003;-64
2022/03/12 12:04:55;;;;;;;21.45;13.32;;;17.40;54.60;;;;;;6279671;22;20025;-65
2022/03/12 12:07:23;;;;;;;21.83;13.18;;;17.20;54.70;;;;;;6278981;22;20023;-64
2022/03/12 12:09:52;;;;;;;20.02;13.45;;;17.20;55.30;;;;;;6277926;22;19999;-65
2022/03/12 12:12:22;;;;;;;20.73;13.85;;;16.90;55.40;;;;;;6280082;22;19996;-64
2022/03/12 12:14:47;;;;;;;20.17;13.60;;;16.30;56.20;;;;;;6278983;22;20358;-64
2022/03/12 12:17:13;;;;;;;20.35;13.43;;;16.00;56.90;;;;;;6280340;22;20026;-64
2022/03/12 12:19:39;;;;;;;20.75;13.30;;;15.90;57.30;;;;;;6279967;22;20012;-65
2022/03/12 12:22:08;;;;;;;20.95;12.70;;;15.90;57.90;;;;;;6279642;22;20057;-65
2022/03/12 12:24:44;;;;;;;20.30;12.38;;;16.00;57.50;;;;;;6276577;22;20014;-66
2022/03/12 12:27:18;;;;;;;20.00;12.77;;;16.00;57.60;;;;;;6279620;22;20000;-65
2022/03/12 12:29:54;;;;;;;19.50;12.70;;;15.70;58.20;;;;;;6279637;22;20000;-64
2022/03/12 12:32:27;;;;;;;20.95;13.00;;;15.90;58.00;;;;;;6278921;22;20023;-65
2022/03/12 12:35:15;;;;;;;16.90;11.80;;;15.80;58.10;;;;;;6279883;22;20327;-64
2022/03/12 12:37:49;;;;;;;19.90;12.68;;;15.70;58.70;;;;;;6279826;22;20088;-64